Forks, Washington
Current Conditions -  °F | °C
As of 6:53 PM on Saturday 22 Nov 2014 (Local Time) from KUIL Reporting Station
Haze Haze  
Wind Chill: 44°   Ceiling: 2700
Heat Index: 44°   Visibility: 6mi
Dew Point: 44°   Wind: 3mph
Humidity: 100%   Direction: 90°E
Pressure: 30.02"   Gusts: NA
Location:  47.95°N, 124.39°W
Report Text: KUIL 230253Z AUTO 09003KT 6SM BR BKN027 BKN032 OVC042 07/07 A3002 RMK AO2 RAB17E39 SLP167 P0001 60009 T00670067 51021
Loading
Personal Weather Stations






























Interactive Weather Map New forecast layout! Learn more

10-Day Weather Forecast

Advertisements
Track Severe Weather on mobile